createdAt,value
2019-04-03T00:01:20.550Z,37.17
2019-04-03T00:03:46.859Z,33.60
2019-04-03T00:06:13.490Z,41.20
2019-04-03T00:08:39.849Z,36.53
2019-04-03T00:11:08.567Z,37.67
2019-04-03T00:13:34.706Z,32.53
2019-04-03T00:16:01.055Z,36.07
2019-04-03T00:18:27.358Z,38.50
2019-04-03T00:20:53.842Z,36.73
2019-04-03T00:23:20.627Z,37.43
2019-04-03T00:25:51.999Z,40.27
2019-04-03T00:28:17.901Z,40.87
2019-04-03T00:30:44.219Z,35.93
2019-04-03T00:33:10.632Z,34.27
2019-04-03T00:35:36.925Z,40.83
2019-04-03T00:38:03.234Z,37.73
2019-04-03T00:40:29.566Z,38.47
2019-04-03T00:42:56.498Z,39.03
2019-04-03T00:45:24.530Z,39.17
2019-04-03T00:47:51.074Z,37.00
2019-04-03T00:50:17.486Z,42.10
2019-04-03T00:52:43.791Z,42.03
2019-04-03T00:55:10.183Z,49.27
2019-04-03T00:57:36.631Z,39.10
2019-04-03T01:00:05.269Z,42.73
2019-04-03T01:02:33.484Z,39.17
2019-04-03T01:04:59.769Z,46.33
2019-04-03T01:07:26.067Z,42.27
2019-04-03T01:09:53.467Z,39.27
2019-04-03T01:12:19.976Z,45.40
2019-04-03T01:14:46.259Z,43.60
2019-04-03T01:17:12.682Z,41.70
2019-04-03T01:19:39.051Z,43.27
2019-04-03T01:22:05.702Z,43.83
2019-04-03T01:24:34.868Z,43.13
2019-04-03T01:27:01.309Z,38.97
2019-04-03T01:29:27.783Z,35.43
2019-04-03T01:31:54.193Z,42.97
2019-04-03T01:34:20.503Z,43.50
2019-04-03T01:36:48.172Z,36.37
2019-04-03T01:39:15.053Z,41.50
2019-04-03T01:41:41.542Z,43.10
2019-04-03T01:44:07.847Z,43.53
2019-04-03T01:46:34.448Z,42.53
2019-04-03T01:49:00.945Z,41.77
2019-04-03T01:51:27.732Z,46.83
2019-04-03T01:53:56.035Z,42.23
2019-04-03T01:56:23.439Z,42.40
2019-04-03T01:58:49.884Z,42.30
2019-04-03T02:01:16.274Z,40.23
2019-04-03T02:03:42.563Z,38.43
2019-04-03T02:06:09.111Z,40.83
2019-04-03T02:08:35.599Z,46.80
2019-04-03T02:11:02.046Z,135.63
2019-04-03T02:13:28.602Z,44.93
2019-04-03T02:15:54.914Z,51.53
2019-04-03T02:18:21.211Z,39.57
2019-04-03T02:20:47.671Z,42.03
2019-04-03T02:23:14.026Z,42.30
2019-04-03T02:25:40.427Z,39.90
2019-04-03T02:28:06.848Z,39.80
2019-04-03T02:30:33.249Z,37.67
2019-04-03T02:33:00.042Z,42.90
2019-04-03T02:35:28.688Z,43.20
2019-04-03T02:37:56.594Z,40.30
2019-04-03T02:40:22.930Z,43.23
2019-04-03T02:42:49.444Z,42.13
2019-04-03T02:45:15.865Z,42.20
2019-04-03T02:47:42.617Z,41.77
2019-04-03T02:50:09.198Z,45.87
2019-04-03T02:52:35.642Z,39.77
2019-04-03T02:55:02.058Z,40.20
2019-04-03T02:57:28.740Z,38.90
2019-04-03T02:59:57.899Z,42.80
2019-04-03T03:02:23.471Z,42.47
2019-04-03T03:04:53.947Z,38.47
2019-04-03T03:07:31.051Z,42.70
2019-04-03T03:10:09.596Z,46.00
2019-04-03T03:12:50.594Z,42.00
2019-04-03T03:15:17.130Z,41.20
2019-04-03T03:17:43.504Z,46.13
2019-04-03T03:20:10.075Z,43.00
2019-04-03T03:22:36.624Z,42.50
2019-04-03T03:25:03.384Z,43.30
2019-04-03T03:27:30.056Z,45.20
2019-04-03T03:29:59.750Z,43.20
2019-04-03T03:32:31.379Z,44.50
2019-04-03T03:35:06.615Z,45.97
2019-04-03T03:37:22.393Z,46.03
2019-04-03T03:39:50.044Z,42.40
2019-04-03T03:42:17.391Z,39.90
2019-04-03T03:44:45.912Z,46.57
2019-04-03T03:47:12.242Z,43.00
2019-04-03T03:49:39.169Z,51.27
2019-04-03T03:52:06.288Z,44.47
2019-04-03T03:54:32.995Z,40.63
2019-04-03T03:57:03.993Z,43.10
2019-04-03T03:59:28.836Z,41.37
2019-04-03T04:01:55.395Z,39.00
2019-04-03T04:04:21.921Z,42.10
2019-04-03T04:06:48.719Z,40.33
2019-04-03T04:09:17.438Z,43.87
2019-04-03T04:11:43.817Z,45.03
2019-04-03T04:14:10.695Z,38.43
2019-04-03T04:16:38.185Z,39.60
2019-04-03T04:19:04.826Z,51.30
2019-04-03T04:21:31.479Z,40.20
2019-04-03T04:23:57.859Z,49.73
2019-04-03T04:26:24.168Z,45.00
2019-04-03T04:28:50.556Z,50.43
2019-04-03T04:31:17.263Z,61.40
2019-04-03T04:33:43.744Z,62.13
2019-04-03T04:36:10.248Z,111.03
2019-04-03T04:38:36.645Z,83.73
2019-04-03T04:41:03.034Z,77.50
2019-04-03T04:43:29.330Z,58.47
2019-04-03T04:45:55.753Z,42.90
2019-04-03T04:48:22.102Z,65.00
2019-04-03T04:50:48.452Z,54.53
2019-04-03T04:53:14.818Z,44.73
2019-04-03T04:55:41.125Z,57.00
2019-04-03T04:58:07.443Z,47.63
2019-04-03T05:00:33.927Z,44.37
2019-04-03T05:03:01.767Z,45.77
2019-04-03T05:05:30.914Z,45.50
2019-04-03T05:07:57.181Z,41.40
2019-04-03T05:10:23.614Z,43.13
2019-04-03T05:12:49.932Z,47.33
2019-04-03T05:15:17.729Z,43.60
2019-04-03T05:17:44.531Z,43.37
2019-04-03T05:20:11.232Z,48.33
2019-04-03T05:22:37.690Z,43.83
2019-04-03T05:25:04.202Z,43.03
2019-04-03T05:27:33.364Z,45.10
2019-04-03T05:29:58.688Z,43.03
2019-04-03T05:32:25.333Z,42.87
2019-04-03T05:34:51.629Z,45.00
2019-04-03T05:37:19.992Z,40.43
2019-04-03T05:39:46.323Z,43.03
2019-04-03T05:42:12.864Z,38.77
2019-04-03T05:44:39.266Z,40.23
2019-04-03T05:47:07.592Z,42.70
2019-04-03T05:49:35.127Z,40.07
2019-04-03T05:52:03.423Z,42.53
2019-04-03T05:54:29.758Z,42.47
2019-04-03T05:56:56.053Z,43.60
2019-04-03T05:59:22.350Z,40.27
2019-04-03T06:01:48.755Z,41.30
2019-04-03T06:04:16.279Z,41.87
2019-04-03T06:06:44.132Z,40.43
2019-04-03T06:09:10.779Z,38.90
2019-04-03T06:11:39.874Z,40.17
2019-04-03T06:14:08.482Z,42.93
2019-04-03T06:16:33.716Z,49.17
2019-04-03T06:19:00.126Z,41.90
2019-04-03T06:21:26.488Z,45.60
2019-04-03T06:23:53.371Z,39.57
2019-04-03T06:26:20.013Z,39.87
2019-04-03T06:28:47.755Z,41.50
2019-04-03T06:31:14.644Z,36.47
2019-04-03T06:33:41.187Z,34.60
2019-04-03T06:36:07.508Z,40.83
2019-04-03T06:38:33.824Z,41.07
2019-04-03T06:41:00.730Z,40.23
2019-04-03T06:43:29.534Z,40.20
2019-04-03T06:45:57.074Z,35.97
2019-04-03T06:48:24.607Z,43.40
2019-04-03T06:50:50.902Z,42.47
2019-04-03T06:53:17.601Z,38.67
2019-04-03T06:55:44.320Z,48.77
2019-04-03T06:58:11.656Z,36.50
2019-04-03T07:00:38.935Z,33.50
2019-04-03T07:03:05.470Z,38.60
2019-04-03T07:05:31.991Z,40.00
2019-04-03T07:08:00.854Z,38.73
2019-04-03T07:10:27.689Z,38.80
2019-04-03T07:12:54.075Z,39.67
2019-04-03T07:15:20.477Z,38.23
2019-04-03T07:17:47.027Z,39.17
2019-04-03T07:20:15.593Z,37.53
2019-04-03T07:22:41.622Z,35.70
2019-04-03T07:25:08.435Z,34.10
2019-04-03T07:27:36.610Z,35.47
2019-04-03T07:30:03.981Z,41.00
2019-04-03T07:32:30.291Z,31.47
2019-04-03T07:34:56.703Z,38.13
2019-04-03T07:37:23.081Z,33.27
2019-04-03T07:39:50.239Z,35.63
2019-04-03T07:42:17.159Z,35.97
2019-04-03T07:44:43.748Z,38.53
2019-04-03T07:47:10.079Z,34.80
2019-04-03T07:49:37.679Z,32.30
2019-04-03T07:52:05.079Z,35.47
2019-04-03T07:54:31.407Z,36.63
2019-04-03T07:56:58.143Z,36.10
2019-04-03T07:59:25.619Z,33.97
2019-04-03T08:01:51.936Z,30.83
2019-04-03T08:04:18.227Z,29.80
2019-04-03T08:06:44.630Z,31.00
2019-04-03T08:09:11.151Z,40.10
2019-04-03T08:11:37.841Z,33.73
2019-04-03T08:14:04.226Z,28.90
2019-04-03T08:16:30.555Z,32.17
2019-04-03T08:18:57.045Z,28.40
2019-04-03T08:21:23.499Z,29.03
2019-04-03T08:23:49.997Z,48.07
2019-04-03T08:26:19.019Z,37.23
2019-04-03T08:28:44.850Z,36.37
2019-04-03T08:31:12.378Z,36.40
2019-04-03T08:33:39.267Z,36.63
2019-04-03T08:36:07.954Z,32.23
2019-04-03T08:38:34.159Z,28.90
2019-04-03T08:41:03.325Z,28.53
2019-04-03T08:43:31.498Z,26.63
2019-04-03T08:45:57.258Z,27.43
2019-04-03T08:48:23.687Z,32.93
2019-04-03T08:50:50.094Z,31.47
2019-04-03T08:53:16.414Z,37.43
2019-04-03T08:55:43.950Z,26.37
2019-04-03T08:58:11.139Z,24.87
2019-04-03T09:00:37.823Z,32.10
2019-04-03T09:03:04.428Z,62.60
2019-04-03T09:05:31.026Z,34.50
2019-04-03T09:07:57.709Z,45.17
2019-04-03T09:10:24.081Z,52.70
2019-04-03T09:12:50.367Z,31.23
2019-04-03T09:15:16.948Z,27.40
2019-04-03T09:17:43.611Z,30.90
2019-04-03T09:20:12.625Z,41.50
2019-04-03T09:22:39.810Z,41.93
2019-04-03T09:25:06.665Z,34.93
2019-04-03T09:27:33.050Z,41.83
2019-04-03T09:29:59.858Z,29.10
2019-04-03T09:32:26.278Z,43.57
2019-04-03T09:34:52.663Z,26.73
2019-04-03T09:37:19.045Z,42.53
2019-04-03T09:39:45.970Z,26.43
2019-04-03T09:42:12.926Z,30.60
2019-04-03T09:44:39.607Z,30.00
2019-04-03T09:47:06.375Z,31.63
2019-04-03T09:49:32.730Z,28.17
2019-04-03T09:51:59.348Z,28.90
2019-04-03T09:54:28.378Z,31.73
2019-04-03T09:56:59.916Z,30.33
2019-04-03T09:59:22.316Z,31.97
2019-04-03T10:01:48.769Z,32.07
2019-04-03T10:04:15.230Z,33.53
2019-04-03T10:06:41.606Z,40.87
2019-04-03T10:09:08.123Z,32.37
2019-04-03T10:11:34.768Z,37.70
2019-04-03T10:14:01.177Z,46.40
2019-04-03T10:16:27.478Z,40.23
2019-04-03T10:18:53.891Z,42.17
2019-04-03T10:21:20.769Z,42.63
2019-04-03T10:23:47.895Z,59.03
2019-04-03T10:26:14.265Z,53.30
2019-04-03T10:28:42.593Z,52.33
2019-04-03T10:31:09.498Z,40.60
2019-04-03T10:33:35.967Z,45.07
2019-04-03T10:36:02.388Z,47.93
2019-04-03T10:38:28.685Z,63.83
2019-04-03T10:40:56.219Z,46.50
2019-04-03T10:43:23.414Z,47.60
2019-04-03T10:45:50.807Z,70.27
2019-04-03T10:48:17.238Z,63.47
2019-04-03T10:50:43.686Z,50.90
2019-04-03T10:53:10.244Z,44.53
2019-04-03T10:55:36.874Z,41.57
2019-04-03T10:58:06.546Z,44.73
2019-04-03T11:00:31.981Z,66.00
2019-04-03T11:02:58.357Z,46.63
2019-04-03T11:05:25.186Z,50.57
2019-04-03T11:07:51.745Z,51.10
2019-04-03T11:10:18.122Z,54.93
2019-04-03T11:12:44.529Z,41.43
2019-04-03T11:15:12.652Z,47.33
2019-04-03T11:17:39.448Z,42.87
2019-04-03T11:20:07.063Z,44.17
2019-04-03T11:22:40.458Z,44.53
2019-04-03T11:25:04.103Z,39.70
2019-04-03T11:29:58.760Z,40.90
2019-04-03T11:30:54.040Z,42.87
2019-04-03T11:32:25.231Z,42.63
2019-04-03T11:34:53.762Z,42.90
2019-04-03T11:37:19.769Z,42.20
2019-04-03T11:39:46.920Z,48.90
2019-04-03T11:42:23.229Z,43.47
2019-04-03T11:44:42.110Z,38.33
2019-04-03T11:47:09.220Z,38.07
2019-04-03T11:49:37.003Z,34.97
2019-04-03T11:52:03.424Z,33.10
2019-04-03T11:54:29.774Z,33.27
2019-04-03T11:56:57.092Z,31.23
2019-04-03T11:59:24.413Z,37.20
2019-04-03T12:01:51.205Z,35.17
2019-04-03T12:04:17.642Z,39.70
2019-04-03T12:06:44.321Z,57.00
2019-04-03T12:09:11.052Z,40.30
2019-04-03T12:11:38.396Z,30.13
2019-04-03T12:14:05.613Z,32.90
2019-04-03T12:16:32.009Z,31.03
2019-04-03T12:18:58.308Z,39.27
2019-04-03T12:21:24.734Z,33.13
2019-04-03T12:23:51.027Z,31.77
2019-04-03T12:26:19.809Z,34.67
2019-04-03T12:28:48.320Z,42.03
2019-04-03T12:31:13.759Z,34.40
2019-04-03T12:33:52.337Z,34.83
2019-04-03T12:36:08.484Z,33.03
2019-04-03T12:38:35.364Z,35.37
2019-04-03T12:41:35.431Z,48.70
2019-04-03T12:44:01.305Z,33.30
2019-04-03T12:46:40.899Z,34.37
2019-04-03T12:49:07.845Z,29.40
2019-04-03T12:51:34.811Z,42.53
2019-04-03T12:54:01.792Z,27.50
2019-04-03T12:56:30.058Z,20.40
2019-04-03T12:58:56.723Z,22.40
2019-04-03T13:01:23.520Z,28.10
2019-04-03T13:03:49.967Z,21.03
2019-04-03T13:06:16.276Z,22.27
2019-04-03T13:08:42.793Z,123.63
2019-04-03T13:11:19.952Z,27.50
2019-04-03T13:13:47.164Z,29.83
2019-04-03T13:16:14.142Z,29.13
2019-04-03T13:18:40.822Z,13.53
2019-04-03T13:21:09.043Z,17.70
2019-04-03T13:23:35.612Z,12.63
2019-04-03T13:26:02.372Z,13.97
2019-04-03T13:28:28.961Z,15.73
2019-04-03T13:30:55.685Z,11.40
2019-04-03T13:33:22.321Z,10.33
2019-04-03T13:35:49.536Z,27.17
2019-04-03T13:38:16.357Z,20.53
2019-04-03T13:40:42.896Z,15.97
2019-04-03T13:43:09.391Z,7.93
2019-04-03T13:45:35.790Z,9.37
2019-04-03T13:48:02.202Z,19.00
2019-04-03T13:50:28.591Z,12.20
2019-04-03T13:52:54.884Z,12.27
2019-04-03T13:55:21.254Z,11.70
2019-04-03T13:57:49.474Z,13.40
2019-04-03T14:00:20.968Z,32.30
2019-04-03T14:02:45.996Z,11.40
2019-04-03T14:05:12.454Z,24.13
2019-04-03T14:07:41.547Z,18.30
2019-04-03T14:10:07.654Z,17.20
2019-04-03T14:12:36.645Z,29.90
2019-04-03T14:15:04.378Z,40.50
2019-04-03T14:17:31.242Z,37.93
2019-04-03T14:19:57.582Z,31.73
2019-04-03T14:22:23.893Z,25.10
2019-04-03T14:24:52.543Z,18.43
2019-04-03T14:27:23.878Z,12.80
2019-04-03T14:29:46.678Z,16.00
2019-04-03T14:32:14.564Z,19.10
2019-04-03T14:34:41.182Z,18.33
2019-04-03T14:37:07.590Z,23.00
2019-04-03T14:39:34.265Z,22.37
2019-04-03T14:42:00.870Z,19.37
2019-04-03T14:44:27.234Z,27.13
2019-04-03T14:46:53.525Z,20.57
2019-04-03T14:49:19.930Z,25.53
2019-04-03T14:51:46.242Z,27.73
2019-04-03T14:54:12.549Z,22.07
2019-04-03T14:56:39.162Z,23.53
2019-04-03T14:59:05.948Z,20.03
2019-04-03T15:01:32.510Z,20.20
2019-04-03T15:04:00.771Z,22.87
2019-04-03T15:06:27.182Z,24.00
2019-04-03T15:08:54.651Z,23.53
2019-04-03T15:11:21.970Z,29.93
2019-04-03T15:13:49.854Z,30.27
2019-04-03T15:16:16.774Z,27.40
2019-04-03T15:18:43.247Z,36.23
2019-04-03T15:21:11.019Z,31.10
2019-04-03T15:23:40.428Z,54.60
2019-04-03T15:26:05.759Z,33.67
2019-04-03T15:28:32.416Z,33.20
2019-04-03T15:30:58.797Z,37.07
2019-04-03T15:33:25.143Z,33.73
2019-04-03T15:35:51.989Z,28.37
2019-04-03T15:38:19.840Z,28.43
2019-04-03T15:40:46.265Z,29.53
2019-04-03T15:43:15.944Z,30.20
2019-04-03T15:45:41.240Z,26.23
2019-04-03T15:48:07.568Z,25.87
2019-04-03T15:50:37.562Z,22.60
2019-04-03T15:53:02.398Z,22.17
2019-04-03T15:55:29.194Z,24.10
2019-04-03T15:57:55.701Z,24.93
2019-04-03T16:00:22.559Z,19.07
2019-04-03T16:02:50.064Z,29.13
2019-04-03T16:05:16.870Z,91.63
2019-04-03T16:07:43.298Z,125.77
2019-04-03T16:10:10.595Z,45.70
2019-04-03T16:12:41.586Z,59.23
2019-04-03T16:15:08.578Z,43.40
2019-04-03T16:17:37.619Z,28.17
2019-04-03T16:20:03.986Z,32.93
2019-04-03T16:22:32.136Z,32.27
2019-04-03T16:24:58.860Z,25.73
2019-04-03T16:27:27.671Z,29.30
2019-04-03T16:29:54.005Z,28.60
2019-04-03T16:32:20.823Z,24.20
2019-04-03T16:34:48.443Z,25.40
2019-04-03T16:37:15.289Z,36.13
2019-04-03T16:39:41.806Z,20.80
2019-04-03T16:42:08.540Z,22.30
2019-04-03T16:44:35.529Z,17.27
2019-04-03T16:47:01.933Z,19.07
2019-04-03T16:49:29.422Z,20.67
2019-04-03T16:51:55.914Z,20.87
2019-04-03T17:01:40.010Z,18.33
2019-04-03T17:04:08.834Z,23.20
2019-04-03T17:06:34.548Z,21.87
2019-04-03T17:09:00.877Z,26.43
2019-04-03T17:11:27.148Z,21.00
2019-04-03T17:13:53.462Z,22.07
2019-04-03T17:16:20.005Z,16.23
2019-04-03T17:18:47.490Z,34.37
2019-04-03T17:21:14.366Z,24.23
2019-04-03T17:23:41.852Z,18.70
2019-04-03T17:26:09.724Z,15.53
2019-04-03T17:28:39.354Z,19.93
2019-04-03T17:31:05.896Z,31.63
2019-04-03T17:33:34.476Z,48.73
2019-04-03T17:36:00.347Z,37.97
2019-04-03T17:38:26.698Z,24.13
2019-04-03T17:40:54.705Z,26.33
2019-04-03T17:43:21.992Z,21.77
2019-04-03T17:45:48.274Z,23.23
2019-04-03T17:48:14.551Z,20.67
2019-04-03T17:50:40.847Z,18.77
2019-04-03T17:53:07.131Z,20.90
2019-04-03T17:55:34.823Z,20.23
2019-04-03T17:58:01.357Z,23.43
2019-04-03T18:00:27.739Z,24.00
2019-04-03T18:02:54.046Z,20.97
2019-04-03T18:05:20.455Z,20.50
2019-04-03T18:07:47.565Z,23.10
2019-04-03T18:10:15.151Z,22.93
2019-04-03T18:12:42.183Z,20.43
2019-04-03T18:15:09.461Z,26.20
2019-04-03T18:17:35.870Z,24.20
2019-04-03T18:20:03.340Z,27.23
2019-04-03T18:22:30.251Z,24.80
2019-04-03T18:24:56.546Z,23.77
2019-04-03T18:27:23.045Z,26.30
2019-04-03T18:29:50.391Z,22.90
2019-04-03T18:32:16.678Z,23.07
2019-04-03T18:34:42.995Z,27.20
2019-04-03T18:37:09.394Z,24.20
2019-04-03T18:39:40.299Z,22.83
2019-04-03T18:42:06.541Z,26.87
2019-04-03T18:44:32.814Z,26.93
2019-04-03T18:47:00.223Z,33.37
2019-04-03T18:49:26.649Z,60.80
2019-04-03T18:51:53.137Z,36.20
2019-04-03T18:54:19.426Z,29.50
2019-04-03T18:56:46.597Z,31.00
2019-04-03T18:59:15.290Z,29.10
2019-04-03T19:01:41.365Z,35.63
2019-04-03T19:04:08.146Z,32.10
2019-04-03T19:06:34.612Z,31.87
2019-04-03T19:09:09.797Z,29.20
2019-04-03T19:11:31.069Z,28.27
2019-04-03T19:13:57.358Z,31.43
2019-04-03T19:16:29.431Z,28.53
2019-04-03T19:18:52.274Z,27.80
2019-04-03T19:21:24.285Z,26.03
2019-04-03T19:23:50.035Z,30.73
2019-04-03T19:26:16.036Z,30.90
2019-04-03T19:28:42.544Z,31.57
2019-04-03T19:31:09.347Z,34.37
2019-04-03T19:33:36.904Z,30.80
2019-04-03T19:36:03.567Z,30.00
2019-04-03T19:40:36.018Z,32.60
2019-04-03T19:42:36.861Z,33.23
2019-04-03T19:45:20.680Z,34.00
2019-04-03T19:48:51.587Z,30.70
2019-04-03T19:52:11.126Z,42.50
2019-04-03T19:54:42.334Z,43.63
2019-04-03T19:57:08.918Z,46.30
2019-04-03T19:59:36.153Z,52.57
2019-04-03T20:02:02.550Z,43.93
2019-04-03T20:04:29.050Z,39.97
2019-04-03T20:06:56.665Z,44.87
2019-04-03T20:09:23.089Z,48.27
2019-04-03T20:11:49.690Z,52.13
2019-04-03T20:14:15.989Z,46.77
2019-04-03T20:16:42.477Z,55.67
2019-04-03T20:19:08.786Z,55.00
2019-04-03T20:21:35.965Z,56.27
2019-04-03T20:24:02.891Z,58.07
2019-04-03T20:26:29.186Z,52.63
2019-04-03T20:28:57.401Z,53.10
2019-04-03T20:31:23.722Z,51.07
2019-04-03T20:33:50.017Z,60.57
2019-04-03T20:36:16.747Z,49.57
2019-04-03T20:38:43.151Z,57.23
2019-04-03T20:41:09.462Z,51.40
2019-04-03T20:43:35.770Z,61.97
2019-04-03T20:46:02.163Z,51.80
2019-04-03T20:48:29.567Z,56.70
2019-04-03T20:50:56.155Z,50.43
2019-04-03T20:53:22.558Z,56.87
2019-04-03T20:55:48.865Z,58.30
2019-04-03T20:58:15.198Z,55.80
2019-04-03T21:00:41.622Z,55.30
2019-04-03T21:03:07.933Z,56.77
2019-04-03T21:05:34.459Z,60.80
2019-04-03T21:08:00.755Z,54.40
2019-04-03T21:10:27.146Z,69.20
2019-04-03T21:12:53.570Z,54.33
2019-04-03T21:15:19.951Z,66.00
2019-04-03T21:17:49.607Z,61.77
2019-04-03T21:20:14.682Z,66.40
2019-04-03T21:22:42.578Z,58.87
2019-04-03T21:25:08.969Z,60.80
2019-04-03T21:27:35.437Z,61.87
2019-04-03T21:30:01.827Z,64.63
2019-04-03T21:32:29.474Z,77.50
2019-04-03T21:34:56.039Z,63.00
2019-04-03T21:37:22.333Z,65.27
2019-04-03T21:39:48.730Z,63.17
2019-04-03T21:42:15.161Z,60.53
2019-04-03T21:44:41.487Z,61.43
2019-04-03T21:47:07.769Z,87.70
2019-04-03T21:49:34.073Z,67.30
2019-04-03T21:52:00.401Z,66.73
2019-04-03T21:54:27.372Z,68.47
2019-04-03T21:56:53.954Z,81.80
2019-04-03T21:59:20.244Z,71.53
2019-04-03T22:01:46.658Z,68.57
2019-04-03T22:04:12.963Z,75.67
2019-04-03T22:06:39.283Z,69.40
2019-04-03T22:09:09.198Z,72.80
2019-04-03T22:11:35.954Z,66.17
2019-04-03T22:14:02.782Z,69.23
2019-04-03T22:16:29.170Z,70.27
2019-04-03T22:18:55.587Z,77.90
2019-04-03T22:21:22.185Z,86.63
2019-04-03T22:23:48.879Z,69.40
2019-04-03T22:26:15.385Z,71.30
2019-04-03T22:28:41.691Z,74.80
2019-04-03T22:31:07.987Z,70.67
2019-04-03T22:33:34.450Z,76.33
2019-04-03T22:36:01.234Z,75.83
2019-04-03T22:38:29.234Z,73.63
2019-04-03T22:40:55.626Z,71.00
2019-04-03T22:43:21.904Z,79.57
2019-04-03T22:45:50.433Z,75.47
2019-04-03T22:48:16.703Z,82.20
2019-04-03T22:50:44.097Z,72.80
2019-04-03T22:53:11.403Z,72.30
2019-04-03T22:55:37.706Z,73.20
2019-04-03T22:58:04.081Z,68.50
2019-04-03T23:00:30.519Z,81.07
2019-04-03T23:02:56.920Z,72.43
2019-04-03T23:05:23.214Z,68.17
2019-04-03T23:07:51.764Z,71.93
2019-04-03T23:10:17.855Z,70.27
2019-04-03T23:12:44.245Z,72.50
2019-04-03T23:15:10.663Z,86.47
2019-04-03T23:17:38.147Z,74.23
2019-04-03T23:20:04.691Z,77.40
2019-04-03T23:22:31.090Z,85.87
2019-04-03T23:24:59.267Z,76.17
2019-04-03T23:27:25.689Z,77.90
2019-04-03T23:29:52.109Z,82.90
2019-04-03T23:32:18.499Z,82.80
2019-04-03T23:34:44.898Z,75.37
2019-04-03T23:37:11.205Z,74.93
2019-04-03T23:39:37.498Z,62.40
2019-04-03T23:42:06.595Z,70.80
2019-04-03T23:44:32.093Z,88.30
2019-04-03T23:46:58.487Z,92.87
2019-04-03T23:49:25.880Z,70.07
2019-04-03T23:51:52.454Z,71.67
2019-04-03T23:54:18.742Z,92.60
2019-04-03T23:56:45.043Z,64.80
2019-04-03T23:59:13.105Z,85.37
